Weather at Aberporth Airport

Public forecast

Using degrees Celsius for public forecast. Weather courtesy of forecast.io.

Closest aviation weather report (METAR) to Aberporth Airport

Closest report is St. Athan Airport, 59.6 nm (110.4 km) SE. Retrieved 2021/04/13 10:20 UTC (11 minutes ago):

EGSY 131020Z 13005KT 080V170 9999 BKN047 08/03 Q1033

Closest aviation forecast (TAF) to Aberporth Airport

Closest forecast is Cardiff International Airport, 62.4 nm (115.6 km) SE. Retrieved 2021/04/13 06:00 UTC (5 hours ago):

TAF EGFF 130500Z 1306/1406 VRB04KT 9999 SCT035 PROB30 1306/1307 3000 BR PROB30 TEMPO 1312/1318 6000 SHRA PROB30 1403/1406 3000 BR